Time;durP1;ratioP1;P1;durP2;ratioP2;P2;SDS_P1;SDS_P2;PMS_P1;PMS_P2;Temp;Humidity;BMP_temperature;BMP_pressure;BME280_temperature;BME280_humidity;BME280_pressure;Samples;Min_cycle;Max_cycle;Signal;HPM_P1;HPM_P2
2024/01/03 00:01:29;;;;;;;46.85;35.30;;;7.30;99.90;;;;;;5052205;28;20021;-67
2024/01/03 00:03:57;;;;;;;45.05;33.78;;;7.30;99.90;;;;;;5053178;28;20100;-70
2024/01/03 00:06:28;;;;;;;45.60;33.58;;;7.40;99.90;;;;;;5053426;28;20028;-68
2024/01/03 00:08:54;;;;;;;45.88;34.53;;;7.50;99.70;;;;;;5053309;28;20032;-65
2024/01/03 00:11:20;;;;;;;45.85;33.90;;;7.60;99.50;;;;;;5053128;28;20017;-66
2024/01/03 00:14:23;;;;;;;38.35;30.60;;;7.70;99.10;;;;;;5053139;28;20388;-68
2024/01/03 00:16:48;;;;;;;47.03;34.92;;;7.70;98.80;;;;;;5045314;28;20044;-70
2024/01/03 00:19:22;;;;;;;42.15;31.00;;;7.80;98.60;;;;;;5053200;28;20017;-66
2024/01/03 00:21:49;;;;;;;42.63;31.60;;;7.70;98.70;;;;;;5051931;28;20391;-69
2024/01/03 00:24:18;;;;;;;34.53;26.70;;;7.70;99.10;;;;;;5053084;28;20134;-60
2024/01/03 00:26:43;;;;;;;37.67;27.75;;;7.70;99.20;;;;;;5053139;28;20025;-66
2024/01/03 00:29:29;;;;;;;33.00;26.95;;;7.80;99.00;;;;;;5055018;28;20021;-66
2024/01/03 00:31:55;;;;;;;31.80;24.30;;;7.90;98.90;;;;;;5056946;28;20032;-64
2024/01/03 00:34:33;;;;;;;35.05;26.38;;;7.90;98.40;;;;;;5057023;28;20029;-69
2024/01/03 00:36:58;;;;;;;39.80;30.33;;;7.90;98.20;;;;;;5055749;28;20025;-66
2024/01/03 00:39:34;;;;;;;29.83;24.17;;;7.90;98.90;;;;;;5056988;28;20376;-72
2024/01/03 00:42:00;;;;;;;29.70;23.33;;;7.90;99.00;;;;;;5056654;28;20021;-71
2024/01/03 00:44:26;;;;;;;32.72;26.02;;;7.90;99.10;;;;;;5055434;28;20479;-65
2024/01/03 00:46:53;;;;;;;36.72;27.95;;;7.90;98.80;;;;;;5056803;28;20025;-65
2024/01/03 00:49:20;;;;;;;37.22;28.80;;;7.90;99.20;;;;;;5056838;28;20032;-63
2024/01/03 00:51:49;;;;;;;39.67;30.50;;;7.90;98.90;;;;;;5055696;28;20421;-71
2024/01/03 00:54:17;;;;;;;29.52;24.42;;;7.80;99.30;;;;;;5056725;28;20025;-66
2024/01/03 00:56:44;;;;;;;38.13;28.92;;;7.80;99.40;;;;;;5056609;28;20170;-66
2024/01/03 00:59:10;;;;;;;38.88;30.42;;;7.90;98.60;;;;;;5056377;28;20558;-71
2024/01/03 01:01:36;;;;;;;34.35;26.73;;;7.90;98.30;;;;;;5056513;28;20021;-71
2024/01/03 01:04:02;;;;;;;46.72;35.38;;;7.90;98.80;;;;;;5056715;28;20110;-67
2024/01/03 01:06:29;;;;;;;36.20;29.00;;;8.00;98.70;;;;;;5055137;28;20601;-64
2024/01/03 01:08:55;;;;;;;37.78;29.48;;;7.90;99.20;;;;;;5055146;28;20471;-68
2024/01/03 01:11:20;;;;;;;36.35;29.05;;;7.90;99.00;;;;;;5056191;28;20028;-67
2024/01/03 01:13:46;;;;;;;36.70;28.52;;;7.90;98.90;;;;;;5056218;28;20029;-68
2024/01/03 01:16:12;;;;;;;33.28;26.40;;;8.00;99.00;;;;;;5056434;28;20052;-67
2024/01/03 01:18:40;;;;;;;31.77;23.73;;;8.00;99.00;;;;;;5056289;28;20366;-68
2024/01/03 01:21:06;;;;;;;29.13;23.40;;;8.00;98.70;;;;;;5056034;28;20048;-67
2024/01/03 01:23:34;;;;;;;32.72;23.83;;;8.10;98.90;;;;;;5054954;28;20067;-60
2024/01/03 01:25:59;;;;;;;26.90;20.83;;;8.10;98.90;;;;;;5055944;28;20040;-66
2024/01/03 01:28:25;;;;;;;24.25;19.02;;;8.20;98.50;;;;;;5055959;28;20047;-69
2024/01/03 01:30:51;;;;;;;21.67;17.48;;;8.20;98.90;;;;;;5054794;28;20025;-62
2024/01/03 01:33:16;;;;;;;20.65;16.40;;;8.20;98.00;;;;;;5055879;28;20067;-65
2024/01/03 01:35:42;;;;;;;19.17;15.45;;;8.30;98.30;;;;;;5054645;28;20025;-66
2024/01/03 01:38:08;;;;;;;20.88;17.98;;;8.30;97.60;;;;;;5055954;28;20092;-65
2024/01/03 01:40:33;;;;;;;20.92;16.50;;;8.30;97.40;;;;;;5054874;28;20017;-65
2024/01/03 01:42:59;;;;;;;21.42;17.02;;;8.30;98.00;;;;;;5055596;28;20064;-67
2024/01/03 01:45:25;;;;;;;20.52;15.07;;;8.30;98.10;;;;;;5055672;28;20099;-66
2024/01/03 01:47:51;;;;;;;19.38;14.80;;;8.30;98.10;;;;;;5055839;28;20020;-66
2024/01/03 01:50:18;;;;;;;20.05;14.95;;;8.30;98.50;;;;;;5055692;28;20025;-71
2024/01/03 01:52:44;;;;;;;15.63;12.48;;;8.30;98.30;;;;;;5054253;28;20021;-64
2024/01/03 01:55:11;;;;;;;16.35;12.88;;;8.30;98.10;;;;;;5055482;28;20471;-71
2024/01/03 01:57:39;;;;;;;13.63;11.73;;;8.40;98.10;;;;;;5055386;28;20021;-62
2024/01/03 02:00:07;;;;;;;12.98;11.57;;;8.40;98.50;;;;;;5055336;28;20017;-66
2024/01/03 02:02:35;;;;;;;15.77;12.07;;;8.40;98.30;;;;;;5054185;28;20107;-66
2024/01/03 02:05:01;;;;;;;16.25;12.80;;;8.40;98.50;;;;;;5055239;28;20029;-63
2024/01/03 02:07:27;;;;;;;11.38;10.10;;;8.50;98.40;;;;;;5055173;28;20032;-74
2024/01/03 02:09:53;;;;;;;18.95;14.85;;;8.50;98.80;;;;;;5055143;28;20356;-66
2024/01/03 02:12:26;;;;;;;21.20;15.02;;;8.50;98.70;;;;;;5055559;28;20100;-73
2024/01/03 02:14:53;;;;;;;19.38;15.65;;;8.40;98.80;;;;;;5055099;28;20108;-66
2024/01/03 02:17:19;;;;;;;16.50;12.95;;;8.30;99.40;;;;;;5055140;28;20032;-68
2024/01/03 02:19:44;;;;;;;15.85;13.30;;;8.30;99.60;;;;;;5055374;28;20017;-66
2024/01/03 02:22:10;;;;;;;16.80;13.98;;;8.40;99.60;;;;;;5055031;28;20013;-70
2024/01/03 02:24:36;;;;;;;20.92;17.10;;;8.30;99.30;;;;;;5054783;28;20456;-68
2024/01/03 02:27:01;;;;;;;16.17;13.77;;;8.30;99.40;;;;;;5053695;28;20083;-71
2024/01/03 02:29:27;;;;;;;16.73;13.65;;;8.30;99.50;;;;;;5054875;28;20096;-62
2024/01/03 02:31:53;;;;;;;15.30;13.00;;;8.40;99.10;;;;;;5054831;28;20018;-66
2024/01/03 02:34:18;;;;;;;21.63;17.83;;;8.50;99.30;;;;;;5054653;28;20421;-64
2024/01/03 02:36:48;;;;;;;21.67;17.50;;;8.30;99.50;;;;;;5054661;28;20104;-63
2024/01/03 02:39:14;;;;;;;43.13;34.53;;;8.30;99.90;;;;;;5054520;28;20383;-71
2024/01/03 02:41:39;;;;;;;28.58;23.27;;;8.30;99.90;;;;;;5054750;28;20088;-71
2024/01/03 02:44:05;;;;;;;23.58;20.00;;;8.40;99.90;;;;;;5053160;28;20036;-66
2024/01/03 02:46:31;;;;;;;23.67;19.48;;;8.40;99.90;;;;;;5054672;28;20032;-72
2024/01/03 02:48:56;;;;;;;24.50;19.00;;;8.50;99.90;;;;;;5054640;28;20503;-63
2024/01/03 02:51:22;;;;;;;21.55;16.35;;;8.60;99.90;;;;;;5053833;28;20021;-70
2024/01/03 02:53:49;;;;;;;18.58;13.85;;;8.60;99.20;;;;;;5053697;28;20479;-69
2024/01/03 02:56:15;;;;;;;14.20;11.93;;;8.70;98.20;;;;;;5054360;28;20032;-68
2024/01/03 02:58:41;;;;;;;11.50;8.63;;;8.90;98.00;;;;;;5054024;28;20084;-62
2024/01/03 03:01:07;;;;;;;4.72;3.30;;;9.10;96.20;;;;;;5052730;28;20057;-69
2024/01/03 03:03:33;;;;;;;3.58;2.63;;;9.50;94.60;;;;;;5054067;28;20021;-70
2024/01/03 03:05:59;;;;;;;3.90;2.90;;;9.90;92.40;;;;;;5052958;28;20024;-67
2024/01/03 03:08:25;;;;;;;2.92;1.80;;;10.20;90.70;;;;;;5053771;28;20100;-66
2024/01/03 03:10:50;;;;;;;2.25;1.70;;;10.50;87.40;;;;;;5054003;28;20471;-70
2024/01/03 03:13:19;;;;;;;3.13;2.38;;;10.70;84.80;;;;;;5053977;28;20032;-66
2024/01/03 03:15:46;;;;;;;7.57;6.15;;;10.90;83.70;;;;;;5053872;28;20036;-67
2024/01/03 03:18:12;;;;;;;3.67;3.00;;;11.10;82.50;;;;;;5052931;28;20021;-72
2024/01/03 03:20:38;;;;;;;3.40;2.95;;;11.20;82.40;;;;;;5053803;28;20496;-64
2024/01/03 03:23:04;;;;;;;2.55;1.90;;;11.30;79.40;;;;;;5053485;28;20120;-72
2024/01/03 03:25:29;;;;;;;1.35;1.25;;;11.30;78.20;;;;;;5052599;28;20368;-66
2024/01/03 03:27:55;;;;;;;2.25;1.60;;;11.50;76.30;;;;;;5052615;28;20028;-70
2024/01/03 03:30:21;;;;;;;2.00;1.80;;;11.50;75.70;;;;;;5052496;28;20446;-66
2024/01/03 03:32:47;;;;;;;2.47;1.77;;;11.50;73.40;;;;;;5053468;28;20025;-67
2024/01/03 03:35:13;;;;;;;3.58;2.75;;;11.60;74.50;;;;;;5053390;28;20021;-64
2024/01/03 03:37:40;;;;;;;5.05;3.60;;;11.70;74.00;;;;;;5053534;28;20021;-67
2024/01/03 03:40:07;;;;;;;3.95;3.10;;;11.60;75.60;;;;;;5053506;28;20017;-69
2024/01/03 03:42:33;;;;;;;5.45;4.30;;;11.60;76.20;;;;;;5052298;28;20060;-69
2024/01/03 03:44:59;;;;;;;6.95;6.20;;;11.50;76.90;;;;;;5053535;28;20427;-67
2024/01/03 03:47:25;;;;;;;3.25;2.95;;;11.50;82.00;;;;;;5053451;28;20028;-72
2024/01/03 03:49:50;;;;;;;3.20;2.55;;;11.50;75.90;;;;;;5053501;28;20035;-66
2024/01/03 03:52:16;;;;;;;1.83;1.40;;;11.60;73.10;;;;;;5053272;28;20025;-63
2024/01/03 03:54:42;;;;;;;2.33;1.90;;;11.70;71.20;;;;;;5053366;28;20029;-67
2024/01/03 03:57:07;;;;;;;1.90;1.70;;;11.80;70.60;;;;;;5053486;28;20025;-67
2024/01/03 03:59:34;;;;;;;3.38;2.40;;;11.80;72.40;;;;;;5053142;28;20364;-69
2024/01/03 04:02:00;;;;;;;2.25;2.05;;;11.90;71.80;;;;;;5053253;28;20032;-70
2024/01/03 04:04:25;;;;;;;2.92;2.42;;;11.90;73.00;;;;;;5051624;28;20025;-66
2024/01/03 04:06:51;;;;;;;2.42;2.00;;;11.90;72.70;;;;;;5053080;28;20059;-70
2024/01/03 04:09:19;;;;;;;3.00;1.88;;;11.90;72.20;;;;;;5053230;28;20383;-68
2024/01/03 04:11:45;;;;;;;3.10;2.75;;;12.00;71.00;;;;;;5053187;28;20025;-68
2024/01/03 04:14:11;;;;;;;1.90;1.75;;;12.00;69.90;;;;;;5053223;28;20029;-68
2024/01/03 04:16:37;;;;;;;1.73;1.50;;;12.00;68.20;;;;;;5053248;28;20495;-64
2024/01/03 04:19:03;;;;;;;2.40;1.70;;;12.10;68.80;;;;;;5053135;28;20382;-62
2024/01/03 04:21:30;;;;;;;2.40;2.20;;;12.10;67.80;;;;;;5053128;28;20025;-67
2024/01/03 04:23:56;;;;;;;3.15;2.60;;;12.20;67.50;;;;;;5052989;28;20444;-71
2024/01/03 04:26:22;;;;;;;3.88;3.50;;;12.20;66.80;;;;;;5052964;28;20031;-64
2024/01/03 04:28:48;;;;;;;4.40;4.00;;;12.30;66.60;;;;;;5053218;28;20112;-62
2024/01/03 04:31:14;;;;;;;4.40;3.97;;;12.30;66.20;;;;;;5053072;28;20443;-71
2024/01/03 04:33:40;;;;;;;4.57;4.10;;;12.30;64.40;;;;;;5052656;28;20091;-66
2024/01/03 04:36:06;;;;;;;4.55;4.15;;;12.40;64.50;;;;;;5052945;28;20383;-66
2024/01/03 04:38:32;;;;;;;5.13;4.63;;;12.40;64.20;;;;;;5051675;28;20032;-65
2024/01/03 04:40:57;;;;;;;5.13;4.63;;;12.40;63.60;;;;;;5052873;28;20033;-62
2024/01/03 04:43:23;;;;;;;4.25;3.80;;;12.40;63.90;;;;;;5052787;28;20112;-70
2024/01/03 04:45:49;;;;;;;4.65;4.20;;;12.40;62.70;;;;;;5051689;28;20472;-68
2024/01/03 04:48:15;;;;;;;3.97;3.65;;;12.40;63.50;;;;;;5052529;28;20364;-68
2024/01/03 04:50:40;;;;;;;3.47;3.17;;;12.40;63.50;;;;;;5052835;28;20029;-71
2024/01/03 04:53:06;;;;;;;3.85;3.17;;;12.40;63.40;;;;;;5052932;28;20037;-70
2024/01/03 04:55:32;;;;;;;4.45;4.05;;;12.40;66.00;;;;;;5052885;28;20028;-62
2024/01/03 04:57:59;;;;;;;4.22;3.83;;;12.30;65.80;;;;;;5052885;28;20121;-68
2024/01/03 05:00:25;;;;;;;4.38;3.95;;;12.30;65.80;;;;;;5052728;28;20476;-64
2024/01/03 05:02:52;;;;;;;4.63;3.70;;;12.20;67.80;;;;;;5051344;28;20025;-65
2024/01/03 05:05:18;;;;;;;16.17;13.57;;;12.20;70.30;;;;;;5051392;28;20021;-67
2024/01/03 05:07:43;;;;;;;70.07;57.42;;;12.10;70.70;;;;;;5051593;28;20424;-63
2024/01/03 05:10:09;;;;;;;41.17;35.80;;;12.00;77.10;;;;;;5052794;28;20387;-60
2024/01/03 05:12:36;;;;;;;34.85;31.15;;;11.90;78.70;;;;;;5051404;28;20112;-69
2024/01/03 05:15:05;;;;;;;30.15;27.05;;;11.80;84.30;;;;;;5053007;28;20021;-64
2024/01/03 05:17:31;;;;;;;47.58;42.88;;;11.70;87.70;;;;;;5056130;28;20024;-68
2024/01/03 05:19:57;;;;;;;54.55;49.33;;;11.50;90.30;;;;;;5056034;28;20025;-70
2024/01/03 05:22:23;;;;;;;42.65;38.42;;;11.40;91.30;;;;;;5056164;28;20025;-61
2024/01/03 05:24:48;;;;;;;43.20;39.05;;;11.30;90.90;;;;;;5054833;28;20547;-64
2024/01/03 05:27:14;;;;;;;27.40;24.70;;;11.30;91.50;;;;;;5055949;28;20099;-65
2024/01/03 05:29:41;;;;;;;28.80;25.98;;;11.40;87.60;;;;;;5056078;28;20031;-72
2024/01/03 05:32:06;;;;;;;16.90;15.30;;;11.40;83.00;;;;;;5055853;28;20025;-66
2024/01/03 05:34:32;;;;;;;12.57;11.30;;;11.60;78.50;;;;;;5055789;28;20067;-64
2024/01/03 05:36:58;;;;;;;7.28;6.00;;;11.70;73.90;;;;;;5054681;28;20021;-75
2024/01/03 05:39:23;;;;;;;6.00;5.40;;;11.90;68.00;;;;;;5055739;28;20025;-67
2024/01/03 05:41:49;;;;;;;5.82;5.22;;;12.00;67.20;;;;;;5055901;28;20021;-63
2024/01/03 05:44:15;;;;;;;5.20;4.55;;;12.20;66.50;;;;;;5055592;28;20613;-65
2024/01/03 05:46:42;;;;;;;5.47;4.22;;;12.30;64.30;;;;;;5055402;28;20383;-64
2024/01/03 05:49:08;;;;;;;3.80;3.45;;;12.40;63.90;;;;;;5055698;28;20033;-68
2024/01/03 05:51:33;;;;;;;7.57;6.05;;;12.50;62.60;;;;;;5055532;28;20042;-72
2024/01/03 05:53:59;;;;;;;5.53;4.50;;;12.60;62.10;;;;;;5055560;28;20027;-68
2024/01/03 05:56:25;;;;;;;5.05;4.55;;;12.60;62.50;;;;;;5054293;28;20044;-70
2024/01/03 05:58:51;;;;;;;5.65;4.68;;;12.60;62.50;;;;;;5053969;28;20522;-70
2024/01/03 06:01:17;;;;;;;7.38;6.15;;;12.70;62.50;;;;;;5055289;28;20029;-73
2024/01/03 06:03:43;;;;;;;6.85;6.13;;;12.70;62.10;;;;;;5054000;28;20032;-64
2024/01/03 06:06:09;;;;;;;9.70;7.50;;;12.70;62.50;;;;;;5055214;28;20096;-66
2024/01/03 06:08:35;;;;;;;8.15;7.05;;;12.70;62.30;;;;;;5055475;28;20017;-71
2024/01/03 06:11:01;;;;;;;9.27;7.20;;;12.70;63.10;;;;;;5055204;28;20070;-68
2024/01/03 06:13:28;;;;;;;6.90;5.90;;;12.70;63.10;;;;;;5053938;28;20068;-68
2024/01/03 06:15:54;;;;;;;7.60;5.60;;;12.80;64.60;;;;;;5055222;28;20075;-66
2024/01/03 06:18:21;;;;;;;6.57;5.88;;;12.80;63.90;;;;;;5055123;28;20021;-70
2024/01/03 06:20:47;;;;;;;6.05;5.47;;;12.80;63.90;;;;;;5055063;28;20075;-74
2024/01/03 06:23:12;;;;;;;6.38;5.60;;;12.80;64.10;;;;;;5055199;28;20498;-69
2024/01/03 06:25:38;;;;;;;5.47;4.72;;;12.80;65.10;;;;;;5055014;28;20032;-67
2024/01/03 06:28:05;;;;;;;5.55;4.88;;;12.80;65.50;;;;;;5054796;28;20112;-65
2024/01/03 06:30:30;;;;;;;5.30;4.20;;;12.90;64.60;;;;;;5054675;28;20025;-70
2024/01/03 06:32:56;;;;;;;5.95;4.35;;;12.90;64.50;;;;;;5054729;28;21808;-66
2024/01/03 06:35:22;;;;;;;5.72;4.68;;;12.90;64.80;;;;;;5053511;28;20022;-61
2024/01/03 06:37:47;;;;;;;5.47;4.90;;;12.90;67.10;;;;;;5054695;28;20048;-65
2024/01/03 06:40:14;;;;;;;4.68;4.28;;;13.00;67.20;;;;;;5054685;28;20024;-69
2024/01/03 06:42:40;;;;;;;5.28;4.78;;;13.00;68.30;;;;;;5054606;28;20023;-67
2024/01/03 06:45:06;;;;;;;4.57;4.18;;;13.00;71.40;;;;;;5052937;28;20029;-64
2024/01/03 06:47:32;;;;;;;4.30;3.90;;;12.90;74.00;;;;;;5054417;28;20028;-66
2024/01/03 06:49:57;;;;;;;4.70;4.25;;;12.90;74.30;;;;;;5054483;28;20021;-64
2024/01/03 06:52:23;;;;;;;7.03;5.80;;;12.90;76.50;;;;;;5054343;28;20045;-64
2024/01/03 06:54:49;;;;;;;8.90;8.00;;;12.80;78.00;;;;;;5054143;28;20043;-69
2024/01/03 06:57:15;;;;;;;11.02;9.13;;;12.80;79.60;;;;;;5054373;28;20025;-67
2024/01/03 06:59:41;;;;;;;14.23;12.45;;;12.80;79.60;;;;;;5053861;28;20055;-73
2024/01/03 07:02:07;;;;;;;19.40;17.00;;;12.80;82.40;;;;;;5054074;28;20498;-64
2024/01/03 07:04:33;;;;;;;23.02;20.30;;;12.80;85.60;;;;;;5054180;28;20368;-65
2024/01/03 07:06:58;;;;;;;27.63;22.63;;;12.70;89.00;;;;;;5054087;28;20162;-65
2024/01/03 07:09:24;;;;;;;30.95;25.63;;;12.70;89.30;;;;;;5053891;28;20024;-72
2024/01/03 07:11:50;;;;;;;29.73;23.83;;;12.60;90.10;;;;;;5053730;28;20066;-64
2024/01/03 07:14:16;;;;;;;24.38;19.83;;;12.60;90.90;;;;;;5051986;28;20387;-72
2024/01/03 07:16:42;;;;;;;24.85;20.60;;;12.60;91.90;;;;;;5053730;28;20427;-71
2024/01/03 07:19:07;;;;;;;28.38;23.33;;;12.50;92.90;;;;;;5053964;28;20032;-68
2024/01/03 07:21:33;;;;;;;32.63;27.17;;;12.40;94.50;;;;;;5053595;28;20092;-70
2024/01/03 07:23:59;;;;;;;23.70;20.67;;;12.50;95.40;;;;;;5052763;28;20078;-64
2024/01/03 07:26:25;;;;;;;21.10;18.83;;;12.30;97.40;;;;;;5046916;28;20032;-67
2024/01/03 07:28:51;;;;;;;23.30;18.50;;;12.20;98.60;;;;;;5052520;28;20031;-64
2024/01/03 07:31:16;;;;;;;21.13;16.88;;;12.00;96.90;;;;;;5053186;28;20029;-63
2024/01/03 07:33:42;;;;;;;21.27;17.58;;;12.00;96.30;;;;;;5053114;28;20099;-70
2024/01/03 07:36:08;;;;;;;18.80;15.98;;;12.10;96.20;;;;;;5052217;28;20116;-63
2024/01/03 07:38:34;;;;;;;20.60;16.17;;;12.20;97.40;;;;;;5052782;28;20021;-63
2024/01/03 07:41:00;;;;;;;18.13;16.13;;;12.10;98.30;;;;;;5053391;28;20065;-67
2024/01/03 07:43:27;;;;;;;14.30;12.13;;;12.00;99.90;;;;;;5053364;28;20063;-67
2024/01/03 07:45:52;;;;;;;13.27;11.82;;;11.90;99.90;;;;;;5053408;28;20021;-67
2024/01/03 07:48:18;;;;;;;10.68;9.45;;;12.10;99.20;;;;;;5052148;28;20028;-67
2024/01/03 07:50:44;;;;;;;9.10;8.20;;;12.20;97.10;;;;;;5053441;28;20028;-66
2024/01/03 07:53:09;;;;;;;7.65;6.82;;;12.30;97.20;;;;;;5053356;28;20083;-67
2024/01/03 07:55:35;;;;;;;7.15;6.45;;;12.40;97.20;;;;;;5053321;28;20032;-65
2024/01/03 07:58:01;;;;;;;7.32;6.53;;;12.40;97.80;;;;;;5052922;28;20487;-67
2024/01/03 08:00:30;;;;;;;11.90;7.32;;;12.40;99.90;;;;;;5053207;28;20044;-65
2024/01/03 08:02:57;;;;;;;11.35;8.45;;;12.40;99.90;;;;;;5053130;28;20025;-64
2024/01/03 08:05:23;;;;;;;8.73;7.70;;;12.40;99.90;;;;;;5053160;28;20472;-66
2024/01/03 08:07:49;;;;;;;7.20;6.55;;;12.30;99.70;;;;;;5053101;28;20018;-68
2024/01/03 08:10:15;;;;;;;7.13;6.43;;;12.30;98.40;;;;;;5053195;28;20021;-64
2024/01/03 08:12:41;;;;;;;12.05;10.15;;;12.30;97.70;;;;;;5052958;28;20471;-65
2024/01/03 08:15:07;;;;;;;12.85;11.50;;;12.40;95.60;;;;;;5053283;28;20135;-64
2024/01/03 08:17:33;;;;;;;15.23;12.57;;;12.50;94.10;;;;;;5052916;28;20027;-68
2024/01/03 08:19:59;;;;;;;12.93;11.48;;;12.60;94.50;;;;;;5052971;28;20446;-70
2024/01/03 08:22:25;;;;;;;15.23;12.57;;;12.60;93.50;;;;;;5053163;28;20055;-65
2024/01/03 08:24:50;;;;;;;13.10;11.73;;;12.60;93.10;;;;;;5052988;28;20032;-69
2024/01/03 08:27:17;;;;;;;12.07;10.85;;;12.70;92.80;;;;;;5052830;28;20025;-65
2024/01/03 08:29:43;;;;;;;12.90;11.50;;;12.70;94.30;;;;;;5053052;28;20018;-68
2024/01/03 08:32:09;;;;;;;14.73;12.75;;;12.70;94.00;;;;;;5050604;28;20025;-69
2024/01/03 08:34:35;;;;;;;11.48;10.05;;;12.80;95.20;;;;;;5051816;28;20029;-68
2024/01/03 08:37:00;;;;;;;16.08;13.15;;;12.70;95.40;;;;;;5052846;28;20021;-65
2024/01/03 08:39:26;;;;;;;13.65;11.43;;;12.70;96.20;;;;;;5052381;28;20100;-66
2024/01/03 08:41:55;;;;;;;19.35;17.23;;;12.70;95.80;;;;;;5050417;28;20070;-72
2024/01/03 08:44:21;;;;;;;25.48;22.30;;;12.70;98.20;;;;;;5052540;28;20399;-62
2024/01/03 08:46:47;;;;;;;22.13;19.45;;;12.60;99.90;;;;;;5051407;28;20040;-68
2024/01/03 08:49:13;;;;;;;25.83;21.83;;;12.60;99.90;;;;;;5052845;28;20021;-70
2024/01/03 08:51:39;;;;;;;28.90;23.13;;;12.50;99.90;;;;;;5055848;28;20025;-63
2024/01/03 08:54:05;;;;;;;43.28;34.25;;;12.40;99.90;;;;;;5055504;28;20035;-70
2024/01/03 08:56:31;;;;;;;48.10;39.60;;;12.20;99.90;;;;;;5056332;28;20021;-68
2024/01/03 08:58:57;;;;;;;36.97;29.08;;;12.10;99.90;;;;;;5056105;28;20057;-65
2024/01/03 09:01:24;;;;;;;25.73;20.42;;;11.90;99.90;;;;;;5056433;28;20017;-68
2024/01/03 09:03:50;;;;;;;24.85;21.38;;;11.80;99.90;;;;;;5055910;28;20035;-67
2024/01/03 09:06:20;;;;;;;26.65;21.20;;;11.80;99.90;;;;;;5056342;28;20109;-63
2024/01/03 09:08:50;;;;;;;32.08;26.40;;;11.90;99.90;;;;;;5056385;28;20075;-70
2024/01/03 09:11:18;;;;;;;26.52;22.75;;;12.00;99.90;;;;;;5056253;28;20075;-70
2024/01/03 09:13:48;;;;;;;16.63;14.93;;;12.00;99.90;;;;;;5056152;28;20025;-65
2024/01/03 09:16:16;;;;;;;14.77;13.18;;;12.10;99.90;;;;;;5054640;28;20379;-68
2024/01/03 09:18:42;;;;;;;11.52;10.32;;;12.40;98.10;;;;;;5056136;28;20046;-63
2024/01/03 09:21:08;;;;;;;11.43;9.32;;;12.60;96.20;;;;;;5055778;28;20364;-66
2024/01/03 09:23:33;;;;;;;9.57;8.57;;;12.70;93.30;;;;;;5054824;28;20033;-72
2024/01/03 09:25:59;;;;;;;10.68;9.13;;;12.90;92.90;;;;;;5054581;28;20379;-71
2024/01/03 09:28:25;;;;;;;16.33;13.75;;;12.90;94.00;;;;;;5054708;28;20119;-66
2024/01/03 09:30:52;;;;;;;10.80;9.70;;;12.90;92.50;;;;;;5054749;28;20394;-65
2024/01/03 09:33:17;;;;;;;11.82;10.63;;;13.00;91.80;;;;;;5055792;28;20025;-71
2024/01/03 09:36:20;;;;;;;42.90;38.25;;;13.10;95.90;;;;;;5055928;28;20021;-67
2024/01/03 09:38:47;;;;;;;48.30;42.63;;;13.10;99.90;;;;;;5055644;28;20021;-65
2024/01/03 09:41:16;;;;;;;62.22;55.58;;;12.80;99.90;;;;;;5055672;28;20032;-66
2024/01/03 09:47:04;;;;;;;67.20;60.20;;;12.60;99.90;;;;;;5055934;28;20071;-67
2024/01/03 09:49:30;;;;;;;53.60;47.95;;;12.60;99.90;;;;;;5055550;28;20459;-69
2024/01/03 09:51:56;;;;;;;54.00;48.63;;;12.70;99.90;;;;;;5054717;28;20458;-66
2024/01/03 09:54:22;;;;;;;51.17;45.97;;;12.80;99.90;;;;;;5052991;28;20029;-72
2024/01/03 09:56:51;;;;;;;46.28;41.58;;;13.00;99.90;;;;;;5054436;28;20429;-68
2024/01/03 09:59:18;;;;;;;41.78;37.67;;;13.20;99.90;;;;;;5054889;28;20392;-67
2024/01/03 10:01:55;;;;;;;41.20;37.17;;;13.20;99.90;;;;;;5054565;28;20108;-66
2024/01/03 10:04:20;;;;;;;38.33;34.58;;;13.30;99.90;;;;;;5050689;28;20033;-68
2024/01/03 10:06:52;;;;;;;43.92;39.53;;;13.30;99.90;;;;;;5054192;28;20028;-65
2024/01/03 10:09:17;;;;;;;56.72;46.03;;;13.40;99.90;;;;;;5061834;28;20025;-61
2024/01/03 10:11:43;;;;;;;66.22;54.25;;;13.30;99.90;;;;;;5071963;28;20543;-67
2024/01/03 10:14:22;;;;;;;49.53;44.13;;;13.30;99.90;;;;;;5072353;28;20017;-70
2024/01/03 10:16:48;;;;;;;57.83;50.05;;;13.30;99.90;;;;;;5072660;28;20024;-64
2024/01/03 10:19:18;;;;;;;48.83;43.30;;;13.30;99.90;;;;;;5073238;28;20028;-65
2024/01/03 10:21:52;;;;;;;43.47;38.88;;;13.40;99.90;;;;;;5072696;28;20102;-65
2024/01/03 10:24:19;;;;;;;38.65;34.45;;;13.40;99.90;;;;;;5074124;28;20105;-69
2024/01/03 10:26:45;;;;;;;37.90;32.58;;;13.40;99.90;;;;;;5073341;28;20158;-68
2024/01/03 10:29:16;;;;;;;37.15;33.13;;;13.50;99.90;;;;;;5054573;28;20065;-67
2024/01/03 10:31:43;;;;;;;53.85;42.53;;;13.40;99.90;;;;;;5053596;28;20033;-66
2024/01/03 10:34:16;;;;;;;69.57;57.03;;;13.50;99.90;;;;;;5054549;28;20522;-67
2024/01/03 10:36:46;;;;;;;51.90;44.55;;;13.40;99.90;;;;;;5054705;28;20384;-66
2024/01/03 10:39:16;;;;;;;46.58;39.22;;;13.50;99.90;;;;;;5054398;28;20041;-69
2024/01/03 10:41:46;;;;;;;43.20;37.80;;;13.60;99.90;;;;;;5054437;28;20066;-66
2024/01/03 10:44:15;;;;;;;37.95;33.70;;;13.70;99.90;;;;;;5054251;28;20195;-68
2024/01/03 10:46:41;;;;;;;35.17;31.15;;;13.80;99.90;;;;;;5054482;28;20032;-62
2024/01/03 10:49:07;;;;;;;29.80;26.60;;;13.80;99.90;;;;;;5054265;28;20483;-70
2024/01/03 10:51:41;;;;;;;26.00;23.38;;;14.00;99.90;;;;;;5054474;28;20024;-63
2024/01/03 10:54:19;;;;;;;24.17;21.63;;;14.20;97.60;;;;;;5054439;28;20020;-62
2024/01/03 10:56:51;;;;;;;23.63;21.15;;;14.30;97.80;;;;;;5054340;28;20028;-66
2024/01/03 10:59:21;;;;;;;22.95;20.65;;;14.50;99.10;;;;;;5053853;28;20124;-65
2024/01/03 11:01:59;;;;;;;28.00;25.05;;;14.70;98.30;;;;;;5053064;28;20431;-62
2024/01/03 11:04:49;;;;;;;24.88;22.48;;;14.60;96.40;;;;;;5054016;28;20087;-69
2024/01/03 11:07:22;;;;;;;23.80;21.40;;;14.70;97.70;;;;;;5054150;28;20021;-71
2024/01/03 11:09:47;;;;;;;22.77;20.42;;;14.80;97.90;;;;;;5052673;28;20053;-70
2024/01/03 11:12:13;;;;;;;23.45;21.00;;;15.10;98.10;;;;;;5053800;28;20143;-66
2024/01/03 11:14:39;;;;;;;23.95;21.48;;;15.20;97.00;;;;;;5053118;28;20029;-65
2024/01/03 11:17:09;;;;;;;24.95;22.35;;;15.40;96.60;;;;;;5054181;28;20017;-65
2024/01/03 11:19:35;;;;;;;23.45;21.05;;;15.50;94.10;;;;;;5052612;28;20021;-62
2024/01/03 11:22:04;;;;;;;24.02;21.60;;;15.60;95.00;;;;;;5053526;28;20021;-69
2024/01/03 11:24:33;;;;;;;21.05;18.92;;;15.80;93.30;;;;;;5053656;28;20464;-63
2024/01/03 11:27:04;;;;;;;26.63;23.70;;;15.90;89.80;;;;;;5053595;28;20027;-63
2024/01/03 11:29:38;;;;;;;22.95;20.58;;;16.10;91.60;;;;;;5053542;28;20025;-66
2024/01/03 11:32:09;;;;;;;9.00;8.10;;;16.10;89.30;;;;;;5053645;28;20074;-66
2024/01/03 11:34:50;;;;;;;10.57;9.57;;;16.00;64.10;;;;;;5053416;28;20025;-72
2024/01/03 11:37:19;;;;;;;3.83;3.42;;;16.20;76.10;;;;;;5053268;28;20036;-62
2024/01/03 11:39:51;;;;;;;5.40;4.90;;;16.20;57.60;;;;;;5053527;28;20025;-70
2024/01/03 11:42:21;;;;;;;3.40;3.10;;;16.10;57.60;;;;;;5053651;28;20468;-66
2024/01/03 11:45:15;;;;;;;3.45;2.92;;;16.20;55.50;;;;;;5053393;28;20029;-65
2024/01/03 11:47:45;;;;;;;2.90;2.60;;;16.30;54.10;;;;;;5052034;28;20525;-66
2024/01/03 11:50:13;;;;;;;2.28;2.08;;;16.40;55.00;;;;;;5053060;28;20028;-62
2024/01/03 11:52:45;;;;;;;5.55;3.83;;;16.40;54.20;;;;;;5053231;28;20076;-64
2024/01/03 11:55:16;;;;;;;3.72;3.42;;;16.40;53.40;;;;;;5051989;28;20033;-69
2024/01/03 11:57:49;;;;;;;3.13;2.83;;;16.40;53.00;;;;;;5052916;28;20036;-66
2024/01/03 12:00:17;;;;;;;3.30;3.00;;;16.40;52.60;;;;;;5053274;28;20035;-62
2024/01/03 12:02:53;;;;;;;3.35;3.05;;;16.50;53.50;;;;;;5053209;28;20048;-63
2024/01/03 12:05:20;;;;;;;4.10;3.40;;;16.50;53.90;;;;;;5052717;28;20025;-60
2024/01/03 12:07:47;;;;;;;12.05;10.77;;;16.50;53.10;;;;;;5053151;28;20108;-65
2024/01/03 12:10:13;;;;;;;6.97;6.28;;;16.30;53.80;;;;;;5053123;28;20108;-69
2024/01/03 12:12:40;;;;;;;6.22;5.32;;;16.30;53.30;;;;;;5052981;28;20024;-67
2024/01/03 12:15:06;;;;;;;6.18;5.57;;;16.40;52.90;;;;;;5053065;28;20088;-64
2024/01/03 12:17:33;;;;;;;6.70;6.10;;;16.50;53.90;;;;;;5053003;28;20021;-64
2024/01/03 12:20:15;;;;;;;5.43;4.90;;;16.50;52.20;;;;;;5052780;28;20029;-67
2024/01/03 12:22:41;;;;;;;4.15;3.45;;;16.60;53.00;;;;;;5053027;28;20025;-65
2024/01/03 12:25:15;;;;;;;4.30;3.90;;;16.70;51.60;;;;;;5054907;28;20032;-63
2024/01/03 12:27:41;;;;;;;2.50;2.30;;;16.80;52.60;;;;;;5057185;28;20024;-68
2024/01/03 12:30:13;;;;;;;2.30;2.10;;;16.90;51.50;;;;;;5054821;28;20025;-65
2024/01/03 12:32:39;;;;;;;1.60;1.50;;;16.90;51.90;;;;;;5047433;28;20028;-63
2024/01/03 12:35:05;;;;;;;2.40;2.10;;;16.90;51.60;;;;;;5045370;28;20021;-65
2024/01/03 12:37:31;;;;;;;2.13;1.90;;;16.90;51.20;;;;;;5050241;28;20033;-62
2024/01/03 12:39:57;;;;;;;1.73;1.40;;;16.80;50.70;;;;;;5056864;28;20024;-67
2024/01/03 12:42:22;;;;;;;1.58;1.42;;;16.90;51.00;;;;;;5055632;28;20025;-69